sensor_id;sensor_type;location;lat;lon;timestamp;P1;durP1;ratioP1;P2;durP2;ratioP2
38787;SDS011;24536;45.488;12.238;2023-05-10T00:01:37;3.65;;;1.05;;
38787;SDS011;24536;45.488;12.238;2023-05-10T00:04:03;1.58;;;1.13;;
38787;SDS011;24536;45.488;12.238;2023-05-10T00:06:29;2.83;;;0.95;;
38787;SDS011;24536;45.488;12.238;2023-05-10T00:08:55;3.13;;;1.48;;
38787;SDS011;24536;45.488;12.238;2023-05-10T00:11:20;1.73;;;1.02;;
38787;SDS011;24536;45.488;12.238;2023-05-10T00:13:46;1.58;;;1.08;;
38787;SDS011;24536;45.488;12.238;2023-05-10T00:16:12;3.05;;;1.40;;
38787;SDS011;24536;45.488;12.238;2023-05-10T00:18:38;1.67;;;1.30;;
38787;SDS011;24536;45.488;12.238;2023-05-10T00:21:05;1.52;;;1.10;;
38787;SDS011;24536;45.488;12.238;2023-05-10T00:23:30;2.00;;;1.20;;
38787;SDS011;24536;45.488;12.238;2023-05-10T00:25:56;0.88;;;0.82;;
38787;SDS011;24536;45.488;12.238;2023-05-10T00:28:22;1.98;;;1.10;;
38787;SDS011;24536;45.488;12.238;2023-05-10T00:30:47;3.70;;;1.25;;
38787;SDS011;24536;45.488;12.238;2023-05-10T00:33:13;2.65;;;1.80;;
38787;SDS011;24536;45.488;12.238;2023-05-10T00:35:39;2.35;;;1.08;;
38787;SDS011;24536;45.488;12.238;2023-05-10T00:38:05;2.28;;;1.30;;
38787;SDS011;24536;45.488;12.238;2023-05-10T00:40:31;1.85;;;1.08;;
38787;SDS011;24536;45.488;12.238;2023-05-10T00:42:57;2.35;;;1.20;;
38787;SDS011;24536;45.488;12.238;2023-05-10T00:45:23;2.60;;;1.33;;
38787;SDS011;24536;45.488;12.238;2023-05-10T00:47:50;2.90;;;1.38;;
38787;SDS011;24536;45.488;12.238;2023-05-10T00:50:20;1.15;;;0.98;;
38787;SDS011;24536;45.488;12.238;2023-05-10T00:52:46;1.95;;;1.25;;
38787;SDS011;24536;45.488;12.238;2023-05-10T00:55:12;2.08;;;1.20;;
38787;SDS011;24536;45.488;12.238;2023-05-10T00:57:38;1.15;;;1.05;;
38787;SDS011;24536;45.488;12.238;2023-05-10T01:00:04;1.73;;;1.33;;
38787;SDS011;24536;45.488;12.238;2023-05-10T01:02:31;1.58;;;1.10;;
38787;SDS011;24536;45.488;12.238;2023-05-10T01:04:58;1.15;;;1.00;;
38787;SDS011;24536;45.488;12.238;2023-05-10T01:07:24;1.08;;;0.98;;
38787;SDS011;24536;45.488;12.238;2023-05-10T01:09:50;1.80;;;1.00;;
38787;SDS011;24536;45.488;12.238;2023-05-10T01:12:16;0.95;;;0.85;;
38787;SDS011;24536;45.488;12.238;2023-05-10T01:14:42;1.33;;;1.20;;
38787;SDS011;24536;45.488;12.238;2023-05-10T01:17:08;1.00;;;0.90;;
38787;SDS011;24536;45.488;12.238;2023-05-10T01:19:37;1.40;;;1.00;;
38787;SDS011;24536;45.488;12.238;2023-05-10T01:30:16;1.05;;;0.82;;
38787;SDS011;24536;45.488;12.238;2023-05-10T01:33:08;4.20;;;1.20;;
38787;SDS011;24536;45.488;12.238;2023-05-10T01:46:26;1.40;;;0.98;;
38787;SDS011;24536;45.488;12.238;2023-05-10T01:48:57;3.33;;;1.30;;
38787;SDS011;24536;45.488;12.238;2023-05-10T01:51:26;1.27;;;1.10;;
38787;SDS011;24536;45.488;12.238;2023-05-10T01:54:00;1.30;;;1.20;;
38787;SDS011;24536;45.488;12.238;2023-05-10T01:56:28;2.88;;;1.25;;
38787;SDS011;24536;45.488;12.238;2023-05-10T01:58:56;1.73;;;1.03;;
38787;SDS011;24536;45.488;12.238;2023-05-10T02:01:25;2.40;;;1.20;;
38787;SDS011;24536;45.488;12.238;2023-05-10T02:03:52;1.10;;;1.00;;
38787;SDS011;24536;45.488;12.238;2023-05-10T02:06:20;3.85;;;1.05;;
38787;SDS011;24536;45.488;12.238;2023-05-10T02:08:49;4.80;;;1.67;;
38787;SDS011;24536;45.488;12.238;2023-05-10T02:11:15;5.45;;;1.60;;
38787;SDS011;24536;45.488;12.238;2023-05-10T02:13:43;3.05;;;1.75;;
38787;SDS011;24536;45.488;12.238;2023-05-10T02:16:12;1.95;;;1.60;;
38787;SDS011;24536;45.488;12.238;2023-05-10T02:18:39;1.90;;;1.70;;
38787;SDS011;24536;45.488;12.238;2023-05-10T02:21:06;2.67;;;2.05;;
38787;SDS011;24536;45.488;12.238;2023-05-10T02:23:33;6.50;;;2.20;;
38787;SDS011;24536;45.488;12.238;2023-05-10T02:26:00;4.30;;;2.20;;
38787;SDS011;24536;45.488;12.238;2023-05-10T02:28:27;2.97;;;2.00;;
38787;SDS011;24536;45.488;12.238;2023-05-10T02:30:54;5.13;;;1.92;;
38787;SDS011;24536;45.488;12.238;2023-05-10T02:33:21;2.55;;;1.85;;
38787;SDS011;24536;45.488;12.238;2023-05-10T02:35:47;2.28;;;1.92;;
38787;SDS011;24536;45.488;12.238;2023-05-10T02:38:15;3.47;;;1.88;;
38787;SDS011;24536;45.488;12.238;2023-05-10T02:40:42;2.33;;;1.35;;
38787;SDS011;24536;45.488;12.238;2023-05-10T02:43:09;1.20;;;1.00;;
38787;SDS011;24536;45.488;12.238;2023-05-10T02:45:39;2.97;;;1.48;;
38787;SDS011;24536;45.488;12.238;2023-05-10T02:48:06;3.78;;;1.27;;
38787;SDS011;24536;45.488;12.238;2023-05-10T02:50:33;2.30;;;1.52;;
38787;SDS011;24536;45.488;12.238;2023-05-10T02:53:00;2.08;;;1.42;;
38787;SDS011;24536;45.488;12.238;2023-05-10T02:55:31;3.10;;;1.40;;
38787;SDS011;24536;45.488;12.238;2023-05-10T02:58:01;1.60;;;1.25;;
38787;SDS011;24536;45.488;12.238;2023-05-10T03:00:28;1.83;;;1.35;;
38787;SDS011;24536;45.488;12.238;2023-05-10T03:02:54;3.55;;;1.70;;
38787;SDS011;24536;45.488;12.238;2023-05-10T03:05:20;1.55;;;1.00;;
38787;SDS011;24536;45.488;12.238;2023-05-10T03:07:46;4.20;;;1.45;;
38787;SDS011;24536;45.488;12.238;2023-05-10T03:10:12;2.85;;;1.60;;
38787;SDS011;24536;45.488;12.238;2023-05-10T03:20:25;2.15;;;1.40;;
38787;SDS011;24536;45.488;12.238;2023-05-10T03:23:00;1.48;;;1.33;;
38787;SDS011;24536;45.488;12.238;2023-05-10T03:25:29;1.92;;;1.13;;
38787;SDS011;24536;45.488;12.238;2023-05-10T03:27:56;1.58;;;1.35;;
38787;SDS011;24536;45.488;12.238;2023-05-10T03:30:23;2.83;;;1.60;;
38787;SDS011;24536;45.488;12.238;2023-05-10T03:32:50;1.73;;;1.23;;
38787;SDS011;24536;45.488;12.238;2023-05-10T03:35:15;2.17;;;1.13;;
38787;SDS011;24536;45.488;12.238;2023-05-10T03:37:41;1.58;;;1.30;;
38787;SDS011;24536;45.488;12.238;2023-05-10T03:40:07;2.00;;;1.55;;
38787;SDS011;24536;45.488;12.238;2023-05-10T03:42:35;2.13;;;1.40;;
38787;SDS011;24536;45.488;12.238;2023-05-10T03:45:00;2.20;;;1.35;;
38787;SDS011;24536;45.488;12.238;2023-05-10T03:47:26;2.90;;;1.40;;
38787;SDS011;24536;45.488;12.238;2023-05-10T03:49:52;1.85;;;1.50;;
38787;SDS011;24536;45.488;12.238;2023-05-10T03:52:18;2.88;;;1.17;;
38787;SDS011;24536;45.488;12.238;2023-05-10T03:54:43;1.77;;;1.33;;
38787;SDS011;24536;45.488;12.238;2023-05-10T03:57:09;2.92;;;1.60;;
38787;SDS011;24536;45.488;12.238;2023-05-10T03:59:34;1.92;;;1.58;;
38787;SDS011;24536;45.488;12.238;2023-05-10T04:02:00;2.92;;;1.40;;
38787;SDS011;24536;45.488;12.238;2023-05-10T04:04:26;2.90;;;1.23;;
38787;SDS011;24536;45.488;12.238;2023-05-10T04:06:52;1.60;;;1.40;;
38787;SDS011;24536;45.488;12.238;2023-05-10T04:09:17;4.82;;;1.60;;
38787;SDS011;24536;45.488;12.238;2023-05-10T04:11:43;1.48;;;1.30;;
38787;SDS011;24536;45.488;12.238;2023-05-10T04:14:09;2.25;;;1.50;;
38787;SDS011;24536;45.488;12.238;2023-05-10T04:16:35;4.57;;;1.17;;
38787;SDS011;24536;45.488;12.238;2023-05-10T04:19:00;2.25;;;1.40;;
38787;SDS011;24536;45.488;12.238;2023-05-10T04:21:26;1.73;;;1.45;;
38787;SDS011;24536;45.488;12.238;2023-05-10T04:23:52;2.38;;;1.38;;
38787;SDS011;24536;45.488;12.238;2023-05-10T04:26:17;2.08;;;1.58;;
38787;SDS011;24536;45.488;12.238;2023-05-10T04:28:43;1.98;;;1.50;;
38787;SDS011;24536;45.488;12.238;2023-05-10T04:31:09;2.65;;;1.55;;
38787;SDS011;24536;45.488;12.238;2023-05-10T04:33:35;1.95;;;1.45;;
38787;SDS011;24536;45.488;12.238;2023-05-10T04:36:02;3.42;;;1.48;;
38787;SDS011;24536;45.488;12.238;2023-05-10T04:38:28;2.95;;;1.77;;
38787;SDS011;24536;45.488;12.238;2023-05-10T04:40:54;3.00;;;1.38;;
38787;SDS011;24536;45.488;12.238;2023-05-10T04:43:20;4.63;;;1.83;;
38787;SDS011;24536;45.488;12.238;2023-05-10T04:45:45;1.70;;;1.20;;
38787;SDS011;24536;45.488;12.238;2023-05-10T04:48:11;4.03;;;1.67;;
38787;SDS011;24536;45.488;12.238;2023-05-10T04:50:37;1.90;;;1.38;;
38787;SDS011;24536;45.488;12.238;2023-05-10T04:53:04;1.45;;;1.20;;
38787;SDS011;24536;45.488;12.238;2023-05-10T04:55:29;1.58;;;1.23;;
38787;SDS011;24536;45.488;12.238;2023-05-10T04:57:55;2.22;;;1.33;;
38787;SDS011;24536;45.488;12.238;2023-05-10T05:00:22;2.08;;;1.30;;
38787;SDS011;24536;45.488;12.238;2023-05-10T05:02:48;2.05;;;1.60;;
38787;SDS011;24536;45.488;12.238;2023-05-10T05:05:14;1.70;;;1.15;;
38787;SDS011;24536;45.488;12.238;2023-05-10T05:07:39;1.80;;;1.30;;
38787;SDS011;24536;45.488;12.238;2023-05-10T05:10:06;2.58;;;1.50;;
38787;SDS011;24536;45.488;12.238;2023-05-10T05:12:34;2.72;;;1.58;;
38787;SDS011;24536;45.488;12.238;2023-05-10T05:15:07;4.05;;;1.52;;
38787;SDS011;24536;45.488;12.238;2023-05-10T05:17:34;3.95;;;2.30;;
38787;SDS011;24536;45.488;12.238;2023-05-10T05:20:00;3.58;;;2.17;;
38787;SDS011;24536;45.488;12.238;2023-05-10T05:22:26;3.70;;;1.67;;
38787;SDS011;24536;45.488;12.238;2023-05-10T05:24:56;2.38;;;1.58;;
38787;SDS011;24536;45.488;12.238;2023-05-10T05:27:23;2.08;;;1.80;;
38787;SDS011;24536;45.488;12.238;2023-05-10T05:29:54;2.55;;;1.65;;
38787;SDS011;24536;45.488;12.238;2023-05-10T05:32:23;2.72;;;1.77;;
38787;SDS011;24536;45.488;12.238;2023-05-10T05:34:49;2.55;;;1.83;;
38787;SDS011;24536;45.488;12.238;2023-05-10T05:37:16;2.28;;;1.73;;
38787;SDS011;24536;45.488;12.238;2023-05-10T05:39:44;2.08;;;1.50;;
38787;SDS011;24536;45.488;12.238;2023-05-10T05:42:10;2.03;;;1.83;;
38787;SDS011;24536;45.488;12.238;2023-05-10T05:44:37;2.78;;;1.58;;
38787;SDS011;24536;45.488;12.238;2023-05-10T05:47:03;3.63;;;1.95;;
38787;SDS011;24536;45.488;12.238;2023-05-10T05:49:30;3.95;;;1.90;;
38787;SDS011;24536;45.488;12.238;2023-05-10T05:51:59;3.33;;;1.77;;
38787;SDS011;24536;45.488;12.238;2023-05-10T05:54:25;2.60;;;1.65;;
38787;SDS011;24536;45.488;12.238;2023-05-10T05:56:55;2.67;;;1.83;;
38787;SDS011;24536;45.488;12.238;2023-05-10T05:59:22;3.10;;;1.50;;
38787;SDS011;24536;45.488;12.238;2023-05-10T06:01:48;2.42;;;1.88;;
38787;SDS011;24536;45.488;12.238;2023-05-10T06:04:14;4.85;;;1.67;;
38787;SDS011;24536;45.488;12.238;2023-05-10T06:06:40;2.25;;;1.55;;
38787;SDS011;24536;45.488;12.238;2023-05-10T06:09:05;3.17;;;1.67;;
38787;SDS011;24536;45.488;12.238;2023-05-10T06:11:31;5.28;;;2.40;;
38787;SDS011;24536;45.488;12.238;2023-05-10T06:13:57;2.28;;;1.75;;
38787;SDS011;24536;45.488;12.238;2023-05-10T06:16:24;1.98;;;1.60;;
38787;SDS011;24536;45.488;12.238;2023-05-10T06:18:49;2.35;;;1.77;;
38787;SDS011;24536;45.488;12.238;2023-05-10T06:21:16;4.40;;;2.58;;
38787;SDS011;24536;45.488;12.238;2023-05-10T06:23:41;3.58;;;2.42;;
38787;SDS011;24536;45.488;12.238;2023-05-10T06:26:07;5.13;;;1.98;;
38787;SDS011;24536;45.488;12.238;2023-05-10T06:28:33;2.92;;;2.20;;
38787;SDS011;24536;45.488;12.238;2023-05-10T06:30:59;2.10;;;1.90;;
38787;SDS011;24536;45.488;12.238;2023-05-10T06:33:25;3.03;;;1.80;;
38787;SDS011;24536;45.488;12.238;2023-05-10T06:35:51;2.72;;;2.13;;
38787;SDS011;24536;45.488;12.238;2023-05-10T06:38:16;3.80;;;2.55;;
38787;SDS011;24536;45.488;12.238;2023-05-10T06:40:42;2.67;;;1.95;;
38787;SDS011;24536;45.488;12.238;2023-05-10T06:43:08;3.22;;;1.90;;
38787;SDS011;24536;45.488;12.238;2023-05-10T06:45:34;2.50;;;1.95;;
38787;SDS011;24536;45.488;12.238;2023-05-10T06:48:00;3.00;;;2.30;;
38787;SDS011;24536;45.488;12.238;2023-05-10T06:50:26;3.42;;;1.90;;
38787;SDS011;24536;45.488;12.238;2023-05-10T06:52:52;3.80;;;2.50;;
38787;SDS011;24536;45.488;12.238;2023-05-10T06:55:17;3.80;;;2.10;;
38787;SDS011;24536;45.488;12.238;2023-05-10T06:57:43;4.15;;;2.60;;
38787;SDS011;24536;45.488;12.238;2023-05-10T07:00:09;3.22;;;2.35;;
38787;SDS011;24536;45.488;12.238;2023-05-10T07:02:35;3.30;;;2.25;;
38787;SDS011;24536;45.488;12.238;2023-05-10T07:05:01;2.97;;;2.05;;
38787;SDS011;24536;45.488;12.238;2023-05-10T07:07:27;5.03;;;2.25;;
38787;SDS011;24536;45.488;12.238;2023-05-10T07:09:53;3.28;;;2.15;;
38787;SDS011;24536;45.488;12.238;2023-05-10T07:12:19;3.53;;;2.58;;
38787;SDS011;24536;45.488;12.238;2023-05-10T07:14:45;3.60;;;1.70;;
38787;SDS011;24536;45.488;12.238;2023-05-10T07:17:11;2.97;;;1.92;;
38787;SDS011;24536;45.488;12.238;2023-05-10T07:19:37;2.70;;;2.00;;
38787;SDS011;24536;45.488;12.238;2023-05-10T07:22:03;3.00;;;2.03;;
38787;SDS011;24536;45.488;12.238;2023-05-10T07:24:28;3.22;;;2.10;;
38787;SDS011;24536;45.488;12.238;2023-05-10T07:26:54;2.47;;;1.73;;
38787;SDS011;24536;45.488;12.238;2023-05-10T07:29:20;2.33;;;2.00;;
38787;SDS011;24536;45.488;12.238;2023-05-10T07:31:46;2.50;;;1.92;;
38787;SDS011;24536;45.488;12.238;2023-05-10T07:34:11;4.68;;;2.38;;
38787;SDS011;24536;45.488;12.238;2023-05-10T07:36:37;2.33;;;2.00;;
38787;SDS011;24536;45.488;12.238;2023-05-10T07:39:03;3.17;;;2.15;;
38787;SDS011;24536;45.488;12.238;2023-05-10T07:41:29;2.70;;;2.20;;
38787;SDS011;24536;45.488;12.238;2023-05-10T07:43:55;2.15;;;1.80;;
38787;SDS011;24536;45.488;12.238;2023-05-10T07:46:21;3.05;;;2.20;;
38787;SDS011;24536;45.488;12.238;2023-05-10T07:48:46;3.03;;;2.45;;
38787;SDS011;24536;45.488;12.238;2023-05-10T07:51:12;4.05;;;2.20;;
38787;SDS011;24536;45.488;12.238;2023-05-10T07:53:38;1.95;;;1.80;;
38787;SDS011;24536;45.488;12.238;2023-05-10T07:56:20;2.35;;;2.10;;
38787;SDS011;24536;45.488;12.238;2023-05-10T07:58:52;3.85;;;2.50;;
38787;SDS011;24536;45.488;12.238;2023-05-10T08:01:18;3.38;;;2.20;;
38787;SDS011;24536;45.488;12.238;2023-05-10T08:03:44;3.35;;;2.33;;
38787;SDS011;24536;45.488;12.238;2023-05-10T08:06:10;2.75;;;2.20;;
38787;SDS011;24536;45.488;12.238;2023-05-10T08:08:36;3.88;;;2.33;;
38787;SDS011;24536;45.488;12.238;2023-05-10T08:11:02;2.53;;;2.15;;
38787;SDS011;24536;45.488;12.238;2023-05-10T08:13:28;3.05;;;2.45;;
38787;SDS011;24536;45.488;12.238;2023-05-10T08:15:54;3.70;;;2.38;;
38787;SDS011;24536;45.488;12.238;2023-05-10T08:18:20;5.13;;;2.35;;
38787;SDS011;24536;45.488;12.238;2023-05-10T08:20:46;3.90;;;2.03;;
38787;SDS011;24536;45.488;12.238;2023-05-10T08:23:14;3.55;;;2.30;;
38787;SDS011;24536;45.488;12.238;2023-05-10T08:25:40;3.50;;;2.40;;
38787;SDS011;24536;45.488;12.238;2023-05-10T08:28:06;5.60;;;2.40;;
38787;SDS011;24536;45.488;12.238;2023-05-10T08:30:32;3.42;;;2.40;;
38787;SDS011;24536;45.488;12.238;2023-05-10T08:32:57;2.88;;;2.58;;
38787;SDS011;24536;45.488;12.238;2023-05-10T08:35:23;3.17;;;2.15;;
38787;SDS011;24536;45.488;12.238;2023-05-10T08:37:50;3.20;;;2.40;;
38787;SDS011;24536;45.488;12.238;2023-05-10T08:40:16;4.18;;;2.78;;
38787;SDS011;24536;45.488;12.238;2023-05-10T08:42:51;3.35;;;2.30;;
38787;SDS011;24536;45.488;12.238;2023-05-10T08:45:23;2.88;;;2.55;;
38787;SDS011;24536;45.488;12.238;2023-05-10T08:47:51;3.20;;;2.40;;
38787;SDS011;24536;45.488;12.238;2023-05-10T08:50:18;4.13;;;2.63;;
38787;SDS011;24536;45.488;12.238;2023-05-10T08:52:46;3.92;;;2.50;;
38787;SDS011;24536;45.488;12.238;2023-05-10T08:55:15;4.80;;;2.88;;
38787;SDS011;24536;45.488;12.238;2023-05-10T08:57:41;3.67;;;2.78;;
38787;SDS011;24536;45.488;12.238;2023-05-10T09:00:07;3.22;;;2.53;;
38787;SDS011;24536;45.488;12.238;2023-05-10T09:02:34;3.55;;;2.50;;
38787;SDS011;24536;45.488;12.238;2023-05-10T09:05:02;3.72;;;2.75;;
38787;SDS011;24536;45.488;12.238;2023-05-10T09:07:29;3.85;;;2.80;;
38787;SDS011;24536;45.488;12.238;2023-05-10T09:09:55;2.78;;;2.28;;
38787;SDS011;24536;45.488;12.238;2023-05-10T09:12:22;2.92;;;2.20;;
38787;SDS011;24536;45.488;12.238;2023-05-10T09:14:48;3.70;;;2.53;;
38787;SDS011;24536;45.488;12.238;2023-05-10T09:17:16;2.50;;;2.30;;
38787;SDS011;24536;45.488;12.238;2023-05-10T09:19:42;2.83;;;2.20;;
38787;SDS011;24536;45.488;12.238;2023-05-10T09:22:09;3.28;;;2.75;;
38787;SDS011;24536;45.488;12.238;2023-05-10T09:24:35;2.95;;;2.40;;
38787;SDS011;24536;45.488;12.238;2023-05-10T09:27:01;4.25;;;2.75;;
38787;SDS011;24536;45.488;12.238;2023-05-10T09:29:38;3.20;;;2.88;;
38787;SDS011;24536;45.488;12.238;2023-05-10T09:32:05;2.95;;;2.53;;
38787;SDS011;24536;45.488;12.238;2023-05-10T09:34:32;3.33;;;2.42;;
38787;SDS011;24536;45.488;12.238;2023-05-10T09:37:00;3.05;;;2.72;;
38787;SDS011;24536;45.488;12.238;2023-05-10T09:39:31;3.20;;;2.90;;
38787;SDS011;24536;45.488;12.238;2023-05-10T09:44:26;5.40;;;3.22;;
38787;SDS011;24536;45.488;12.238;2023-05-10T09:46:52;2.60;;;2.40;;
38787;SDS011;24536;45.488;12.238;2023-05-10T09:49:18;3.88;;;2.60;;
38787;SDS011;24536;45.488;12.238;2023-05-10T09:51:45;3.88;;;2.97;;
38787;SDS011;24536;45.488;12.238;2023-05-10T09:56:37;5.13;;;2.80;;
38787;SDS011;24536;45.488;12.238;2023-05-10T09:59:05;4.68;;;3.15;;
38787;SDS011;24536;45.488;12.238;2023-05-10T10:01:33;4.85;;;3.22;;
38787;SDS011;24536;45.488;12.238;2023-05-10T10:04:09;5.07;;;3.60;;
38787;SDS011;24536;45.488;12.238;2023-05-10T10:06:36;3.47;;;2.83;;
38787;SDS011;24536;45.488;12.238;2023-05-10T10:09:08;4.90;;;3.20;;
38787;SDS011;24536;45.488;12.238;2023-05-10T10:11:37;3.17;;;2.87;;
38787;SDS011;24536;45.488;12.238;2023-05-10T10:14:04;5.83;;;3.40;;
38787;SDS011;24536;45.488;12.238;2023-05-10T10:16:31;4.10;;;3.25;;
38787;SDS011;24536;45.488;12.238;2023-05-10T10:18:57;4.00;;;3.08;;
38787;SDS011;24536;45.488;12.238;2023-05-10T10:21:23;3.38;;;3.03;;
38787;SDS011;24536;45.488;12.238;2023-05-10T10:23:49;5.28;;;4.30;;
38787;SDS011;24536;45.488;12.238;2023-05-10T10:26:16;3.83;;;3.10;;
38787;SDS011;24536;45.488;12.238;2023-05-10T10:34:07;5.28;;;3.00;;
38787;SDS011;24536;45.488;12.238;2023-05-10T10:36:45;4.97;;;3.35;;
38787;SDS011;24536;45.488;12.238;2023-05-10T10:39:12;5.38;;;2.90;;
38787;SDS011;24536;45.488;12.238;2023-05-10T10:41:39;6.22;;;3.50;;
38787;SDS011;24536;45.488;12.238;2023-05-10T10:54:40;3.97;;;3.42;;
38787;SDS011;24536;45.488;12.238;2023-05-10T10:57:10;5.78;;;3.60;;
38787;SDS011;24536;45.488;12.238;2023-05-10T10:59:41;4.57;;;3.47;;
38787;SDS011;24536;45.488;12.238;2023-05-10T11:05:00;4.05;;;3.45;;
38787;SDS011;24536;45.488;12.238;2023-05-10T11:07:56;5.57;;;3.67;;
38787;SDS011;24536;45.488;12.238;2023-05-10T11:10:23;7.05;;;3.72;;
38787;SDS011;24536;45.488;12.238;2023-05-10T11:15:31;4.55;;;3.50;;
38787;SDS011;24536;45.488;12.238;2023-05-10T11:17:58;6.82;;;3.58;;
38787;SDS011;24536;45.488;12.238;2023-05-10T11:20:27;4.35;;;3.92;;
38787;SDS011;24536;45.488;12.238;2023-05-10T11:22:59;4.63;;;3.90;;
38787;SDS011;24536;45.488;12.238;2023-05-10T11:25:44;5.97;;;3.30;;
38787;SDS011;24536;45.488;12.238;2023-05-10T11:28:11;4.15;;;3.50;;
38787;SDS011;24536;45.488;12.238;2023-05-10T11:30:40;5.18;;;3.63;;
38787;SDS011;24536;45.488;12.238;2023-05-10T11:33:08;4.35;;;3.45;;
38787;SDS011;24536;45.488;12.238;2023-05-10T11:35:38;6.13;;;4.40;;
38787;SDS011;24536;45.488;12.238;2023-05-10T11:38:08;7.40;;;3.72;;
38787;SDS011;24536;45.488;12.238;2023-05-10T11:40:34;3.90;;;3.13;;
38787;SDS011;24536;45.488;12.238;2023-05-10T11:43:00;4.45;;;3.60;;
38787;SDS011;24536;45.488;12.238;2023-05-10T11:45:27;5.72;;;3.30;;
38787;SDS011;24536;45.488;12.238;2023-05-10T11:47:57;6.10;;;3.90;;
38787;SDS011;24536;45.488;12.238;2023-05-10T11:50:23;4.13;;;3.25;;
38787;SDS011;24536;45.488;12.238;2023-05-10T11:52:53;3.10;;;2.80;;
38787;SDS011;24536;45.488;12.238;2023-05-10T11:55:19;4.40;;;3.70;;
38787;SDS011;24536;45.488;12.238;2023-05-10T11:57:45;5.15;;;3.50;;
38787;SDS011;24536;45.488;12.238;2023-05-10T12:00:14;8.30;;;3.72;;
38787;SDS011;24536;45.488;12.238;2023-05-10T12:02:40;4.82;;;3.20;;
38787;SDS011;24536;45.488;12.238;2023-05-10T12:05:06;6.90;;;3.78;;
38787;SDS011;24536;45.488;12.238;2023-05-10T12:07:32;4.10;;;3.50;;
38787;SDS011;24536;45.488;12.238;2023-05-10T12:10:17;3.83;;;3.03;;
38787;SDS011;24536;45.488;12.238;2023-05-10T12:12:49;5.00;;;3.60;;
38787;SDS011;24536;45.488;12.238;2023-05-10T12:15:18;4.95;;;3.95;;
38787;SDS011;24536;45.488;12.238;2023-05-10T12:17:49;3.67;;;3.10;;
38787;SDS011;24536;45.488;12.238;2023-05-10T12:20:16;4.20;;;3.47;;
38787;SDS011;24536;45.488;12.238;2023-05-10T12:22:49;3.92;;;3.17;;
38787;SDS011;24536;45.488;12.238;2023-05-10T12:25:19;4.88;;;3.63;;
38787;SDS011;24536;45.488;12.238;2023-05-10T12:27:53;6.85;;;3.70;;
38787;SDS011;24536;45.488;12.238;2023-05-10T12:30:24;4.57;;;3.75;;
38787;SDS011;24536;45.488;12.238;2023-05-10T12:32:51;3.88;;;3.22;;
38787;SDS011;24536;45.488;12.238;2023-05-10T12:35:21;4.65;;;3.75;;
38787;SDS011;24536;45.488;12.238;2023-05-10T12:37:48;3.40;;;3.10;;
38787;SDS011;24536;45.488;12.238;2023-05-10T12:40:15;3.88;;;3.22;;
38787;SDS011;24536;45.488;12.238;2023-05-10T12:42:41;5.32;;;3.40;;
38787;SDS011;24536;45.488;12.238;2023-05-10T12:45:09;3.83;;;3.10;;
38787;SDS011;24536;45.488;12.238;2023-05-10T12:47:35;4.50;;;3.78;;
38787;SDS011;24536;45.488;12.238;2023-05-10T12:50:02;5.97;;;3.67;;
38787;SDS011;24536;45.488;12.238;2023-05-10T12:52:28;8.02;;;3.83;;
38787;SDS011;24536;45.488;12.238;2023-05-10T12:54:54;3.70;;;3.00;;
38787;SDS011;24536;45.488;12.238;2023-05-10T12:57:20;5.82;;;3.80;;
38787;SDS011;24536;45.488;12.238;2023-05-10T12:59:46;4.55;;;3.47;;
38787;SDS011;24536;45.488;12.238;2023-05-10T13:02:12;4.53;;;3.50;;
38787;SDS011;24536;45.488;12.238;2023-05-10T13:04:39;3.38;;;3.00;;
38787;SDS011;24536;45.488;12.238;2023-05-10T13:07:08;5.93;;;4.05;;
38787;SDS011;24536;45.488;12.238;2023-05-10T13:09:34;4.10;;;3.70;;
38787;SDS011;24536;45.488;12.238;2023-05-10T13:12:00;5.30;;;3.83;;
38787;SDS011;24536;45.488;12.238;2023-05-10T13:14:26;6.15;;;3.63;;
38787;SDS011;24536;45.488;12.238;2023-05-10T13:16:52;3.95;;;3.20;;
38787;SDS011;24536;45.488;12.238;2023-05-10T13:19:18;3.75;;;3.35;;
38787;SDS011;24536;45.488;12.238;2023-05-10T13:21:44;5.20;;;3.88;;
38787;SDS011;24536;45.488;12.238;2023-05-10T13:24:10;4.93;;;4.03;;
38787;SDS011;24536;45.488;12.238;2023-05-10T13:26:38;5.05;;;4.22;;
38787;SDS011;24536;45.488;12.238;2023-05-10T13:29:07;4.97;;;3.40;;
38787;SDS011;24536;45.488;12.238;2023-05-10T13:31:34;8.10;;;4.53;;
38787;SDS011;24536;45.488;12.238;2023-05-10T13:34:00;6.00;;;4.55;;
38787;SDS011;24536;45.488;12.238;2023-05-10T13:36:26;4.25;;;3.70;;
38787;SDS011;24536;45.488;12.238;2023-05-10T13:38:51;7.22;;;4.13;;
38787;SDS011;24536;45.488;12.238;2023-05-10T13:41:17;5.32;;;3.78;;
38787;SDS011;24536;45.488;12.238;2023-05-10T13:43:43;6.40;;;4.93;;
38787;SDS011;24536;45.488;12.238;2023-05-10T13:46:09;4.82;;;3.42;;
38787;SDS011;24536;45.488;12.238;2023-05-10T13:48:34;4.50;;;3.50;;
38787;SDS011;24536;45.488;12.238;2023-05-10T13:51:01;5.82;;;3.72;;
38787;SDS011;24536;45.488;12.238;2023-05-10T13:53:27;4.00;;;3.60;;
38787;SDS011;24536;45.488;12.238;2023-05-10T13:55:53;5.03;;;3.90;;
38787;SDS011;24536;45.488;12.238;2023-05-10T13:58:19;7.25;;;4.22;;
38787;SDS011;24536;45.488;12.238;2023-05-10T14:00:44;4.80;;;3.70;;
38787;SDS011;24536;45.488;12.238;2023-05-10T14:03:10;4.47;;;3.83;;
38787;SDS011;24536;45.488;12.238;2023-05-10T14:05:36;5.28;;;4.22;;
38787;SDS011;24536;45.488;12.238;2023-05-10T14:08:01;10.05;;;4.50;;
38787;SDS011;24536;45.488;12.238;2023-05-10T14:10:27;4.55;;;3.75;;
38787;SDS011;24536;45.488;12.238;2023-05-10T14:12:53;4.38;;;3.63;;
38787;SDS011;24536;45.488;12.238;2023-05-10T14:15:18;5.03;;;3.67;;
38787;SDS011;24536;45.488;12.238;2023-05-10T14:17:44;5.30;;;4.00;;
38787;SDS011;24536;45.488;12.238;2023-05-10T14:20:10;5.05;;;3.25;;
38787;SDS011;24536;45.488;12.238;2023-05-10T14:22:36;4.80;;;3.83;;
38787;SDS011;24536;45.488;12.238;2023-05-10T14:25:02;5.18;;;3.28;;
38787;SDS011;24536;45.488;12.238;2023-05-10T14:27:27;6.45;;;3.85;;
38787;SDS011;24536;45.488;12.238;2023-05-10T14:29:53;4.60;;;3.38;;
38787;SDS011;24536;45.488;12.238;2023-05-10T14:32:19;5.45;;;4.18;;
38787;SDS011;24536;45.488;12.238;2023-05-10T14:34:44;5.15;;;3.97;;
38787;SDS011;24536;45.488;12.238;2023-05-10T14:37:10;6.32;;;4.35;;
38787;SDS011;24536;45.488;12.238;2023-05-10T14:39:39;6.38;;;3.55;;
38787;SDS011;24536;45.488;12.238;2023-05-10T14:42:05;4.78;;;3.17;;
38787;SDS011;24536;45.488;12.238;2023-05-10T14:44:30;3.58;;;3.03;;
38787;SDS011;24536;45.488;12.238;2023-05-10T14:46:56;4.45;;;3.58;;
38787;SDS011;24536;45.488;12.238;2023-05-10T14:49:22;4.00;;;3.42;;
38787;SDS011;24536;45.488;12.238;2023-05-10T14:51:50;4.22;;;3.47;;
38787;SDS011;24536;45.488;12.238;2023-05-10T14:54:16;4.47;;;3.75;;
38787;SDS011;24536;45.488;12.238;2023-05-10T14:56:42;3.88;;;3.40;;
38787;SDS011;24536;45.488;12.238;2023-05-10T14:59:07;4.90;;;4.10;;
38787;SDS011;24536;45.488;12.238;2023-05-10T15:01:33;4.03;;;3.38;;
38787;SDS011;24536;45.488;12.238;2023-05-10T15:04:02;5.85;;;4.25;;
38787;SDS011;24536;45.488;12.238;2023-05-10T15:06:32;4.35;;;3.95;;
38787;SDS011;24536;45.488;12.238;2023-05-10T15:11:24;4.28;;;3.65;;
38787;SDS011;24536;45.488;12.238;2023-05-10T15:13:50;5.65;;;4.40;;
38787;SDS011;24536;45.488;12.238;2023-05-10T15:16:16;5.10;;;4.35;;
38787;SDS011;24536;45.488;12.238;2023-05-10T15:18:42;6.25;;;5.40;;
38787;SDS011;24536;45.488;12.238;2023-05-10T15:21:08;5.60;;;4.28;;
38787;SDS011;24536;45.488;12.238;2023-05-10T15:23:34;4.28;;;3.88;;
38787;SDS011;24536;45.488;12.238;2023-05-10T15:26:00;5.47;;;4.60;;
38787;SDS011;24536;45.488;12.238;2023-05-10T15:28:25;4.95;;;4.00;;